CDT,Max TemperatureF,Mean TemperatureF,Min TemperatureF,Max Dew PointF,MeanDew PointF,Min DewpointF,Max Humidity, Mean Humidity, Min Humidity, Max Sea Level PressureIn, Mean Sea Level PressureIn, Min Sea Level PressureIn, Max VisibilityMiles, Mean VisibilityMiles, Min VisibilityMiles, Max Wind SpeedMPH, Mean Wind SpeedMPH, Max Gust SpeedMPH,PrecipitationIn, CloudCover, Events, WindDirDegrees
2013-7-1,83,68,54,59,54,47,94,61,28,30.23,30.19,30.17,10,8,4,7,2,,0.00,1,,31
2013-7-2,82,69,56,59,54,47,96,62,29,30.20,30.14,30.08,10,8,4,9,1,,0.00,1,,36
2013-7-3,82,68,55,59,53,47,94,58,30,30.09,30.03,29.96,10,8,5,8,2,,0.00,0,,144
2013-7-4,87,75,63,60,55,50,75,49,28,29.97,29.90,29.83,10,10,7,15,7,21,0.00,0,,164
2013-7-5,88,78,69,64,58,53,60,51,38,29.86,29.82,29.78,10,9,5,15,10,22,0.00,1,,179
2013-7-6,81,74,67,71,65,59,93,73,56,29.87,29.84,29.80,10,8,4,10,6,16,0.13,2,Rain,153
2013-7-7,87,77,67,75,68,63,95,77,59,29.94,29.86,29.82,10,8,4,15,1,21,0.09,2,Rain-Thunderstorm,147
2013-7-8,84,74,63,67,63,53,96,73,35,30.04,29.98,29.94,10,9,0,8,1,,0.00,1,Fog,83
2013-7-9,82,74,65,70,66,58,96,78,57,30.00,29.89,29.72,10,10,2,20,8,31,0.86,3,Rain-Thunderstorm,260
2013-7-10,77,66,54,62,56,53,97,72,43,30.10,30.07,30.00,10,8,4,12,5,20,0.00,0,,302
2013-7-11,82,68,54,59,56,54,97,65,40,30.12,30.05,29.96,10,6,2,14,4,20,0.00,1,,150
2013-7-12,86,77,68,65,60,55,67,55,46,29.97,29.92,29.85,10,8,5,20,12,28,0.00,0,Rain-Thunderstorm,159
2013-7-13,75,72,69,68,65,61,86,78,62,30.06,29.98,29.90,10,10,5,17,9,24,0.07,6,Rain-Thunderstorm,134
2013-7-14,74,70,67,68,63,59,94,81,71,30.21,30.12,30.04,10,9,5,10,6,17,0.03,8,Rain-Thunderstorm,143
2013-7-15,85,74,64,67,64,61,95,69,46,30.24,30.20,30.16,10,8,4,10,4,,0.00,2,,149
2013-7-16,89,80,71,69,66,58,89,65,35,30.23,30.19,30.16,10,9,7,15,6,18,0.00,1,,194
2013-7-17,91,80,68,70,66,64,91,63,40,30.25,30.21,30.11,10,10,7,14,5,20,0.00,1,,214
2013-7-18,93,83,73,70,67,64,81,61,38,30.11,29.93,29.77,10,10,10,20,8,28,0.00,0,,204
2013-7-19,82,72,62,71,61,54,94,64,40,29.95,29.87,29.77,10,10,7,16,9,29,0.05,1,Rain-Thunderstorm,292
2013-7-20,76,68,60,63,59,55,98,75,49,29.99,29.95,29.91,10,9,4,9,2,,0.09,3,Rain-Thunderstorm,66
2013-7-21,80,70,60,67,60,54,90,71,54,29.97,29.89,29.78,10,9,5,10,5,16,0.00,3,Rain,106
2013-7-22,82,71,57,68,61,52,93,71,42,29.92,29.77,29.70,10,8,5,17,8,24,0.00,3,,269
2013-7-23,77,65,53,55,51,45,94,65,34,30.05,30.00,29.92,10,9,5,9,3,,0.00,1,,355
2013-7-24,78,68,57,57,53,46,88,61,33,30.07,30.03,29.96,10,9,5,9,1,16,0.00,4,,291
2013-7-25,77,67,57,64,60,55,98,79,49,30.03,29.96,29.93,10,9,4,14,4,29,0.18,3,Rain-Thunderstorm,265
2013-7-26,69,58,48,60,51,45,95,75,47,30.14,30.04,29.96,10,10,3,21,6,28,0.03,4,Rain,322
2013-7-27,69,57,46,46,43,40,92,63,36,30.14,30.06,29.97,10,8,4,18,6,24,0.00,5,,327
2013-7-28,74,58,43,51,46,42,95,67,38,30.09,30.03,30.01,10,8,4,12,3,16,0.00,2,,347
2013-7-29,76,59,44,60,51,43,95,71,40,30.13,30.10,30.07,10,8,4,9,3,,0.03,3,Rain,148
2013-7-30,71,66,59,63,61,58,97,88,72,30.11,30.09,30.05,10,6,2,7,2,,0.42,6,Rain,120
2013-7-31,77,64,52,66,56,47,100,76,35,30.10,30.07,30.04,10,6,0,18,3,30,0.02,3,Rain,282